»·PEaware :: N432SP KTOA-KSBD

N432SP :: KTOA-KSBD

FLIGHT INFORMATION

Flight Status: Arrived
Operator: Privately registered:
United States
More flights under this callsign
Pilot: Abdulkadir S. (4989)
Aircraft: CESSNA 172 SKYHAWK
(C172)
More flights by this aircraft type
Origin: KTOA Zamperini
United States
Destination: KSBD San Bernardino Intl
United States
More flights between these airports :: More routes between these airports
Route: LIMBO V64 SLI V8 PDZ
File this flight plan on PilotEdge
Remarks: Request ILS 6 Approach Practice
Altitude:
(Current/Filed)
5,000ft
Speed:
(Current/Filed)
110kts
Departed: 10-Jan-18 03:00 PM
Arrived: 10-Jan-18 03:45 PM
Distance/Time
Traveled:
57nm/0:44
Distance/Time
To Go:
Arrived

Flight Plot

Page will automatically refresh every two minutes.


Map Options




Map Legend


Flown Route
Filed Route
Departure Airport
Arrival Airport
Navaid (VOR, NDB)
Fix

Horizontal Profiles

Position Reports

Time Latitude Longitude Heading Altitude Ground
Speed
10-Jan-18 14:47 33.801704 -118.341540 105 101ft 0kts
10-Jan-18 14:48 33.801704 -118.341540 105 101ft 0kts
10-Jan-18 14:49 33.801704 -118.341540 105 101ft 0kts
10-Jan-18 14:50 33.801704 -118.341540 105 101ft 0kts
10-Jan-18 14:51 33.801704 -118.341540 105 101ft 0kts
10-Jan-18 14:52 33.801704 -118.341540 105 101ft 0kts
10-Jan-18 14:53 33.801704 -118.341540 105 101ft 0kts
10-Jan-18 14:54 33.801704 -118.341540 105 101ft 0kts
10-Jan-18 14:55 33.801704 -118.341540 105 101ft 0kts
10-Jan-18 14:56 33.801704 -118.341540 105 101ft 0kts
10-Jan-18 14:57 33.801704 -118.341540 105 101ft 0kts
10-Jan-18 14:58 33.801580 -118.341144 118 102ft 9kts
10-Jan-18 14:59 33.798680 -118.335486 126 104ft 23kts
10-Jan-18 15:00 33.798979 -118.333391 33 100ft 0kts
10-Jan-18 15:01 33.798979 -118.333391 34 100ft 0kts
10-Jan-18 15:02 33.798979 -118.333391 33 100ft 0kts
10-Jan-18 15:03 33.798979 -118.333391 34 100ft 0kts
10-Jan-18 15:04 33.798979 -118.333391 33 100ft 0kts
10-Jan-18 15:05 33.800001 -118.333479 311 98ft 20kts
10-Jan-18 15:06 33.810577 -118.351541 302 781ft 81kts
10-Jan-18 15:07 33.819223 -118.375777 296 1814ft 78kts
10-Jan-18 15:08 33.827743 -118.400003 301 2738ft 81kts
10-Jan-18 15:09 33.837195 -118.424101 295 3660ft 79kts
10-Jan-18 15:10 33.833700 -118.446355 167 4377ft 86kts
10-Jan-18 15:11 33.810393 -118.445169 185 5001ft 98kts
10-Jan-18 15:12 33.779737 -118.447523 184 5020ft 118kts
10-Jan-18 15:13 33.762337 -118.426426 82 5013ft 110kts
10-Jan-18 15:14 33.764400 -118.390073 82 4943ft 113kts
10-Jan-18 15:15 33.765857 -118.352143 87 4875ft 114kts
10-Jan-18 15:16 33.767308 -118.315145 84 4896ft 111kts
10-Jan-18 15:17 33.768324 -118.278000 83 4877ft 113kts
10-Jan-18 15:18 33.769906 -118.240891 82 4905ft 111kts
10-Jan-18 15:19 33.772449 -118.203834 83 4848ft 113kts
10-Jan-18 15:20 33.775847 -118.166875 81 4848ft 111kts
10-Jan-18 15:21 33.778735 -118.129986 81 4850ft 110kts
10-Jan-18 15:22 33.781586 -118.093413 80 4849ft 110kts
10-Jan-18 15:23 33.783798 -118.056821 82 4850ft 110kts
10-Jan-18 15:24 33.792431 -118.021982 69 4851ft 109kts
10-Jan-18 15:25 33.800690 -117.986871 71 4850ft 109kts
10-Jan-18 15:26 33.808456 -117.951507 73 4849ft 110kts
10-Jan-18 15:27 33.818048 -117.916780 69 4849ft 109kts
10-Jan-18 15:28 33.827513 -117.882226 69 4848ft 109kts
10-Jan-18 15:29 33.836902 -117.847516 67 4848ft 110kts
10-Jan-18 15:30 33.846350 -117.812699 70 4850ft 110kts
10-Jan-18 15:31 33.855836 -117.777814 70 4850ft 109kts
10-Jan-18 15:32 33.864854 -117.742812 71 4863ft 108kts
10-Jan-18 15:33 33.873726 -117.708512 70 4904ft 108kts
10-Jan-18 15:34 33.882607 -117.673428 70 4899ft 109kts
10-Jan-18 15:35 33.891539 -117.638321 70 4895ft 110kts
10-Jan-18 15:36 33.900581 -117.603026 70 4887ft 111kts
10-Jan-18 15:37 33.909339 -117.567529 70 4880ft 110kts
10-Jan-18 15:38 33.917361 -117.531949 66 4873ft 109kts
10-Jan-18 15:39 33.944206 -117.518271 22 4869ft 108kts
10-Jan-18 15:40 33.972238 -117.504644 22 4863ft 109kts
10-Jan-18 15:41 33.999732 -117.491429 22 4445ft 102kts
10-Jan-18 15:42 34.024766 -117.479562 21 3924ft 91kts
10-Jan-18 15:43 34.035119 -117.452941 69 3423ft 93kts
10-Jan-18 15:44 34.038944 -117.423012 67 3200ft 87kts
10-Jan-18 15:45 34.048149 -117.393647 68 3200ft 97kts
10-Jan-18 15:46 34.056835 -117.363640 68 3190ft 92kts
10-Jan-18 15:47 34.065729 -117.335190 64 2670ft 94kts
10-Jan-18 15:48 34.074126 -117.305661 64 2065ft 91kts
10-Jan-18 15:49 34.082370 -117.277371 65 1583ft 87kts
10-Jan-18 15:50 34.089451 -117.254318 64 1173ft 57kts
10-Jan-18 15:51 34.093160 -117.242240 56 1098ft 27kts

Navigation Log

Ident Type
Flight plan parsing failed, navigation log unavailable